Van Lear, Kentucky
Current Conditions -  °F | °C
As of 10:15 AM on Friday 31 Oct 2014 (Local Time) from KSJS Reporting Station
Drizzle Drizzle  
Wind Chill: 41°   Ceiling: 4900
Heat Index: 41°   Visibility: 10mi
Dew Point: 39°   Wind: 0mph
Humidity: 92%   Direction: NA
Pressure: 29.97"   Gusts: NA
Location:  37.77°N, 82.76°W
Report Text: KSJS 311415Z AUTO 00000KT 10SM -DZ BKN049 OVC055 05/04 A2997 RMK AO2 T00510039
Loading
Personal Weather Stations






























Interactive Weather Map
Tropical Storm Tracking
New forecast layout! Learn more

10-Day Weather Forecast

Advertisements
Track Severe Weather on mobile